createdAt,value
2022-08-01T00:00:02.547Z,0
2022-08-01T00:01:02.653Z,0
2022-08-01T00:02:04.262Z,0
2022-08-01T00:03:04.536Z,0
2022-08-01T00:04:04.677Z,0
2022-08-01T00:05:04.798Z,0
2022-08-01T00:06:04.913Z,0
2022-08-01T00:07:05.020Z,0
2022-08-01T00:08:05.138Z,0
2022-08-01T00:09:05.252Z,0
2022-08-01T00:10:05.373Z,0
2022-08-01T00:11:05.486Z,0
2022-08-01T00:12:05.598Z,0
2022-08-01T00:13:05.714Z,0
2022-08-01T00:14:05.830Z,0
2022-08-01T00:15:05.937Z,0
2022-08-01T00:16:06.046Z,0
2022-08-01T00:17:07.799Z,0
2022-08-01T00:18:07.911Z,0
2022-08-01T00:19:08.042Z,0
2022-08-01T00:20:08.145Z,0
2022-08-01T00:21:08.253Z,0
2022-08-01T00:22:09.389Z,0
2022-08-01T00:23:09.735Z,0
2022-08-01T00:24:16.457Z,0
2022-08-01T00:25:17.975Z,0
2022-08-01T00:26:18.096Z,0
2022-08-01T00:27:18.204Z,0
2022-08-01T00:28:18.316Z,0
2022-08-01T00:30:15.167Z,0
2022-08-01T00:31:15.326Z,0
2022-08-01T00:32:15.448Z,0
2022-08-01T00:33:15.580Z,0
2022-08-01T00:34:15.689Z,0
2022-08-01T00:35:15.803Z,0
2022-08-01T00:36:15.909Z,0
2022-08-01T00:37:16.375Z,0
2022-08-01T00:38:16.489Z,0
2022-08-01T00:39:16.605Z,0
2022-08-01T00:40:16.716Z,0
2022-08-01T00:41:16.839Z,0
2022-08-01T00:42:16.967Z,0
2022-08-01T00:43:17.088Z,0
2022-08-01T00:44:17.211Z,0
2022-08-01T00:45:17.319Z,0
2022-08-01T00:46:17.435Z,0
2022-08-01T00:47:17.546Z,0
2022-08-01T00:48:17.654Z,0
2022-08-01T00:49:17.992Z,0
2022-08-01T00:50:18.124Z,0
2022-08-01T00:51:18.241Z,0
2022-08-01T00:52:18.359Z,0
2022-08-01T00:53:19.256Z,0
2022-08-01T00:54:19.364Z,0
2022-08-01T00:55:19.481Z,0
2022-08-01T00:56:19.590Z,0
2022-08-01T00:58:06.720Z,0
2022-08-01T00:59:06.881Z,0
2022-08-01T01:00:07.157Z,0
2022-08-01T01:01:12.103Z,0
2022-08-01T01:02:16.148Z,0
2022-08-01T01:03:16.262Z,0
2022-08-01T01:04:16.374Z,0
2022-08-01T01:05:16.486Z,0
2022-08-01T01:06:16.602Z,0
2022-08-01T01:07:16.712Z,0
2022-08-01T01:08:16.821Z,0
2022-08-01T01:09:16.929Z,0
2022-08-01T01:10:17.035Z,0
2022-08-01T01:11:17.154Z,0
2022-08-01T01:12:17.268Z,0
2022-08-01T01:13:17.383Z,0
2022-08-01T01:14:17.493Z,0
2022-08-01T01:15:17.609Z,0
2022-08-01T01:16:17.723Z,0
2022-08-01T01:17:52.129Z,0
2022-08-01T01:18:52.286Z,0
2022-08-01T01:19:52.388Z,0
2022-08-01T01:20:52.504Z,0
2022-08-01T01:21:52.631Z,0
2022-08-01T01:22:52.753Z,0
2022-08-01T01:23:52.867Z,0
2022-08-01T01:24:53.053Z,0
2022-08-01T01:25:53.170Z,0
2022-08-01T01:26:53.280Z,0
2022-08-01T01:27:53.389Z,0
2022-08-01T01:28:53.509Z,0
2022-08-01T01:30:01.435Z,0
2022-08-01T01:31:01.568Z,0
2022-08-01T01:32:02.047Z,0
2022-08-01T01:33:02.247Z,0
2022-08-01T01:34:02.359Z,0
2022-08-01T01:35:02.558Z,0
2022-08-01T01:36:02.671Z,0
2022-08-01T01:37:02.777Z,0
2022-08-01T01:38:02.892Z,0
2022-08-01T01:39:03.001Z,0
2022-08-01T01:40:03.110Z,0
2022-08-01T01:41:03.229Z,0
2022-08-01T01:42:04.260Z,0
2022-08-01T01:43:04.509Z,0
2022-08-01T01:44:04.619Z,0
2022-08-01T01:45:04.729Z,0
2022-08-01T01:46:04.853Z,0
2022-08-01T01:47:05.825Z,0
2022-08-01T01:48:05.954Z,0
2022-08-01T01:49:06.369Z,0
2022-08-01T01:50:06.542Z,0
2022-08-01T01:51:06.666Z,0
2022-08-01T01:52:07.580Z,0
2022-08-01T01:53:15.743Z,0
2022-08-01T01:54:15.852Z,0
2022-08-01T01:55:15.971Z,0
2022-08-01T01:56:16.079Z,0
2022-08-01T01:57:16.200Z,0
2022-08-01T01:58:16.306Z,0
2022-08-01T01:59:26.038Z,0
2022-08-01T02:00:26.178Z,0
2022-08-01T02:02:07.043Z,0
2022-08-01T02:03:07.455Z,0
2022-08-01T02:04:07.640Z,0
2022-08-01T02:05:07.762Z,0
2022-08-01T02:06:07.876Z,0
2022-08-01T02:07:07.992Z,0
2022-08-01T02:08:08.109Z,0
2022-08-01T02:09:09.104Z,0
2022-08-01T02:10:09.235Z,0
2022-08-01T02:11:09.351Z,0
2022-08-01T02:12:09.833Z,0
2022-08-01T02:13:09.964Z,0
2022-08-01T02:14:10.076Z,0
2022-08-01T02:15:10.182Z,0
2022-08-01T02:16:10.292Z,0
2022-08-01T02:17:10.404Z,0
2022-08-01T02:18:10.512Z,0
2022-08-01T02:19:10.625Z,0
2022-08-01T02:20:10.737Z,0
2022-08-01T02:21:10.849Z,0
2022-08-01T02:22:10.967Z,0
2022-08-01T02:23:11.080Z,0
2022-08-01T02:24:11.190Z,0
2022-08-01T02:25:11.313Z,0
2022-08-01T02:26:11.938Z,0
2022-08-01T02:27:12.048Z,0
2022-08-01T02:28:12.167Z,0
2022-08-01T02:29:12.289Z,0
2022-08-01T02:30:12.405Z,0
2022-08-01T02:31:12.527Z,0
2022-08-01T02:32:12.642Z,0
2022-08-01T02:33:16.495Z,0
2022-08-01T02:34:16.617Z,0
2022-08-01T02:35:16.732Z,0
2022-08-01T02:36:33.750Z,0
2022-08-01T02:37:33.897Z,0
2022-08-01T02:38:34.013Z,0
2022-08-01T02:39:34.146Z,0
2022-08-01T02:40:34.291Z,0
2022-08-01T02:41:34.405Z,0
2022-08-01T02:42:36.371Z,0
2022-08-01T02:43:36.499Z,0
2022-08-01T02:44:36.612Z,0
2022-08-01T02:45:36.728Z,0
2022-08-01T02:46:36.832Z,0
2022-08-01T02:47:36.952Z,0
2022-08-01T02:48:37.064Z,0
2022-08-01T02:49:37.722Z,0
2022-08-01T02:50:37.902Z,0
2022-08-01T02:51:38.020Z,0
2022-08-01T02:52:38.129Z,0
2022-08-01T02:53:45.054Z,0
2022-08-01T02:54:45.180Z,0
2022-08-01T02:55:45.288Z,0
2022-08-01T02:56:45.410Z,0
2022-08-01T02:58:00.791Z,0
2022-08-01T02:59:01.076Z,0
2022-08-01T03:00:01.203Z,0
2022-08-01T03:01:03.405Z,0
2022-08-01T03:02:04.541Z,0
2022-08-01T03:03:04.795Z,0
2022-08-01T03:04:04.903Z,0
2022-08-01T03:05:05.017Z,0
2022-08-01T03:06:05.127Z,0
2022-08-01T03:07:05.257Z,0
2022-08-01T03:08:15.123Z,0
2022-08-01T03:09:17.086Z,0
2022-08-01T03:10:17.278Z,0
2022-08-01T03:11:17.391Z,0
2022-08-01T03:12:17.506Z,0
2022-08-01T03:13:17.613Z,0
2022-08-01T03:14:17.727Z,0
2022-08-01T03:15:17.846Z,0
2022-08-01T03:16:17.963Z,0
2022-08-01T03:17:18.088Z,0
2022-08-01T03:18:18.422Z,0
2022-08-01T03:19:18.638Z,0
2022-08-01T03:20:18.759Z,0
2022-08-01T03:21:18.872Z,0
2022-08-01T03:22:18.994Z,0
2022-08-01T03:23:19.091Z,0
2022-08-01T03:24:19.214Z,0
2022-08-01T03:25:19.333Z,0
2022-08-01T03:26:19.443Z,0
2022-08-01T03:27:19.555Z,0
2022-08-01T03:28:19.660Z,0
2022-08-01T03:29:19.791Z,0
2022-08-01T03:30:19.902Z,0
2022-08-01T03:31:20.016Z,0
2022-08-01T03:32:20.137Z,0
2022-08-01T03:33:20.247Z,0
2022-08-01T03:34:20.362Z,0
2022-08-01T03:35:20.474Z,0
2022-08-01T03:36:20.585Z,0
2022-08-01T03:37:20.698Z,0
2022-08-01T03:38:20.810Z,0
2022-08-01T03:39:20.934Z,0
2022-08-01T03:40:21.702Z,0
2022-08-01T03:41:21.831Z,0
2022-08-01T03:42:21.965Z,0
2022-08-01T03:43:22.084Z,0
2022-08-01T03:44:22.190Z,0
2022-08-01T03:45:22.313Z,0
2022-08-01T03:46:25.430Z,0
2022-08-01T03:47:25.607Z,0
2022-08-01T03:48:25.719Z,0
2022-08-01T03:49:26.047Z,0
2022-08-01T03:50:26.199Z,0
2022-08-01T03:51:26.306Z,0
2022-08-01T03:52:27.995Z,0
2022-08-01T03:53:28.114Z,0
2022-08-01T03:54:28.228Z,0
2022-08-01T03:55:28.334Z,0
2022-08-01T03:56:28.447Z,0
2022-08-01T03:57:37.282Z,0
2022-08-01T03:58:37.389Z,0
2022-08-01T03:59:37.512Z,0
2022-08-01T04:00:37.626Z,0
2022-08-01T04:01:38.116Z,0
2022-08-01T04:02:38.272Z,0
2022-08-01T04:03:43.356Z,0
2022-08-01T04:04:43.464Z,0
2022-08-01T04:05:43.589Z,0
2022-08-01T04:06:43.699Z,0
2022-08-01T04:07:43.816Z,0
2022-08-01T04:08:43.930Z,0
2022-08-01T04:09:44.040Z,0
2022-08-01T04:10:44.151Z,0
2022-08-01T04:11:44.258Z,0
2022-08-01T04:12:44.371Z,0
2022-08-01T04:13:44.681Z,0
2022-08-01T04:14:44.790Z,0
2022-08-01T04:15:44.897Z,0
2022-08-01T04:16:46.456Z,0
2022-08-01T04:17:46.577Z,0
2022-08-01T04:18:46.688Z,0
2022-08-01T04:19:46.801Z,0
2022-08-01T04:20:46.915Z,0
2022-08-01T04:21:47.042Z,0
2022-08-01T04:22:47.165Z,0
2022-08-01T04:23:53.677Z,0
2022-08-01T04:24:57.342Z,0
2022-08-01T04:25:57.455Z,0
2022-08-01T04:26:57.562Z,0
2022-08-01T04:27:57.678Z,0
2022-08-01T04:28:57.793Z,0
2022-08-01T04:29:57.898Z,0
2022-08-01T04:31:02.488Z,0
2022-08-01T04:32:03.292Z,0
2022-08-01T04:33:03.617Z,0
2022-08-01T04:34:03.735Z,0
2022-08-01T04:36:04.948Z,0
2022-08-01T04:37:05.170Z,0
2022-08-01T04:38:05.279Z,0
2022-08-01T04:39:05.398Z,0
2022-08-01T04:40:05.510Z,0
2022-08-01T04:41:10.040Z,0
2022-08-01T04:42:10.163Z,0
2022-08-01T04:43:10.276Z,0
2022-08-01T04:44:10.419Z,0
2022-08-01T04:45:10.528Z,0
2022-08-01T04:46:10.641Z,0
2022-08-01T04:47:10.749Z,0
2022-08-01T04:48:10.858Z,0
2022-08-01T04:49:11.220Z,0
2022-08-01T04:50:11.370Z,0
2022-08-01T04:51:11.481Z,0.45
2022-08-01T04:52:23.092Z,0.11
2022-08-01T04:53:24.485Z,0.11
2022-08-01T04:54:24.598Z,0.11
2022-08-01T04:55:24.704Z,0.11
2022-08-01T04:56:24.819Z,0.11
2022-08-01T04:57:24.930Z,0.11
2022-08-01T04:58:25.039Z,0.11
2022-08-01T04:59:25.151Z,0.11
2022-08-01T05:00:25.265Z,0.11
2022-08-01T05:01:25.669Z,0.11
2022-08-01T05:02:25.817Z,0
2022-08-01T05:03:25.935Z,0
2022-08-01T05:04:26.053Z,0
2022-08-01T05:05:26.171Z,0
2022-08-01T05:06:26.284Z,0
2022-08-01T05:07:26.395Z,0
2022-08-01T05:08:26.509Z,0
2022-08-01T05:09:31.407Z,0
2022-08-01T05:10:31.520Z,0
2022-08-01T05:11:31.647Z,0
2022-08-01T05:12:33.196Z,0
2022-08-01T05:13:33.346Z,0
2022-08-01T05:14:33.512Z,0
2022-08-01T05:15:33.635Z,0
2022-08-01T05:16:33.747Z,0
2022-08-01T05:17:33.860Z,0
2022-08-01T05:18:35.235Z,0
2022-08-01T05:19:35.354Z,0
2022-08-01T05:20:35.465Z,0
2022-08-01T05:21:35.578Z,0
2022-08-01T05:22:35.694Z,0.16
2022-08-01T05:23:43.773Z,0
2022-08-01T05:24:45.461Z,0
2022-08-01T05:25:59.099Z,0
2022-08-01T05:27:00.727Z,0
2022-08-01T05:28:03.562Z,0
2022-08-01T05:29:03.675Z,0.18
2022-08-01T05:30:03.795Z,0
2022-08-01T05:31:03.911Z,0
2022-08-01T05:32:05.037Z,0
2022-08-01T05:33:05.276Z,0.16
2022-08-01T05:34:05.398Z,0
2022-08-01T05:35:05.525Z,0
2022-08-01T05:36:05.639Z,0
2022-08-01T05:37:05.757Z,0
2022-08-01T05:38:15.276Z,0
2022-08-01T05:39:15.385Z,0
2022-08-01T05:40:15.494Z,0
2022-08-01T05:41:15.603Z,0
2022-08-01T05:42:15.717Z,0
2022-08-01T05:43:15.829Z,0
2022-08-01T05:44:15.933Z,0
2022-08-01T05:45:16.046Z,0
2022-08-01T05:46:16.157Z,0
2022-08-01T05:47:16.269Z,0
2022-08-01T05:48:16.381Z,0
2022-08-01T05:49:16.780Z,0
2022-08-01T05:50:16.932Z,0
2022-08-01T05:51:17.062Z,0
2022-08-01T05:52:17.170Z,0
2022-08-01T05:53:17.279Z,0
2022-08-01T05:54:17.386Z,0
2022-08-01T05:55:17.497Z,0
2022-08-01T05:56:17.616Z,0
2022-08-01T05:57:17.725Z,0
2022-08-01T05:58:17.840Z,0
2022-08-01T05:59:17.954Z,0
2022-08-01T06:00:18.072Z,0
2022-08-01T06:01:18.194Z,0
2022-08-01T06:02:18.559Z,0
2022-08-01T06:03:18.728Z,0
2022-08-01T06:04:18.841Z,0
2022-08-01T06:05:18.951Z,0
2022-08-01T06:06:25.752Z,0
2022-08-01T06:07:25.865Z,0
2022-08-01T06:08:25.976Z,0
2022-08-01T06:09:26.088Z,0
2022-08-01T06:10:26.197Z,0
2022-08-01T06:11:26.308Z,0
2022-08-01T06:12:26.420Z,0
2022-08-01T06:13:26.531Z,0
2022-08-01T06:14:26.694Z,0
2022-08-01T06:15:26.874Z,0
2022-08-01T06:16:27.006Z,0
2022-08-01T06:17:27.102Z,0
2022-08-01T06:18:27.210Z,0
2022-08-01T06:19:27.329Z,0
2022-08-01T06:20:27.677Z,0
2022-08-01T06:21:27.825Z,0
2022-08-01T06:22:28.016Z,0
2022-08-01T06:23:33.178Z,0
2022-08-01T06:24:33.286Z,0
2022-08-01T06:25:33.421Z,0
2022-08-01T06:26:33.541Z,0
2022-08-01T06:27:33.649Z,0
2022-08-01T06:28:33.764Z,0
2022-08-01T06:29:33.881Z,0
2022-08-01T06:30:33.998Z,0
2022-08-01T06:31:34.353Z,0
2022-08-01T06:32:34.467Z,0
2022-08-01T06:33:34.634Z,0
2022-08-01T06:34:34.740Z,0
2022-08-01T06:35:34.852Z,0
2022-08-01T06:36:34.967Z,0
2022-08-01T06:37:35.088Z,0
2022-08-01T06:38:35.207Z,0
2022-08-01T06:39:35.310Z,0
2022-08-01T06:40:36.681Z,0
2022-08-01T06:41:36.790Z,0
2022-08-01T06:42:36.924Z,0
2022-08-01T06:43:37.032Z,0
2022-08-01T06:44:37.147Z,0
2022-08-01T06:45:37.265Z,0
2022-08-01T06:46:37.371Z,0
2022-08-01T06:47:37.476Z,0
2022-08-01T06:48:37.587Z,0
2022-08-01T06:49:38.094Z,0
2022-08-01T06:50:38.266Z,0
2022-08-01T06:51:38.375Z,0
2022-08-01T06:52:38.483Z,0
2022-08-01T06:53:38.603Z,0
2022-08-01T06:54:38.699Z,0
2022-08-01T06:55:38.806Z,0
2022-08-01T06:56:38.918Z,0
2022-08-01T06:57:39.025Z,0
2022-08-01T06:58:39.132Z,0
2022-08-01T06:59:39.232Z,0
2022-08-01T07:00:39.550Z,0
2022-08-01T07:01:39.893Z,0
2022-08-01T07:02:40.021Z,0
2022-08-01T07:03:55.197Z,0
2022-08-01T07:04:55.318Z,0
2022-08-01T07:05:55.443Z,0
2022-08-01T07:06:55.545Z,0
2022-08-01T07:07:55.661Z,0
2022-08-01T07:08:55.781Z,0
2022-08-01T07:09:55.901Z,0
2022-08-01T07:10:56.023Z,0
2022-08-01T07:11:56.134Z,0
2022-08-01T07:12:56.245Z,0
2022-08-01T07:13:56.397Z,0
2022-08-01T07:14:56.504Z,0
2022-08-01T07:15:56.649Z,0
2022-08-01T07:16:56.761Z,0
2022-08-01T07:17:56.878Z,0
2022-08-01T07:18:56.990Z,0.15
2022-08-01T07:19:57.976Z,0
2022-08-01T07:20:58.088Z,0
2022-08-01T07:21:58.201Z,0
2022-08-01T07:23:00.241Z,0.12
2022-08-01T07:24:00.497Z,0.14
2022-08-01T07:25:00.610Z,0
2022-08-01T07:26:01.338Z,0
2022-08-01T07:27:26.396Z,0
2022-08-01T07:28:26.519Z,0
2022-08-01T07:29:26.641Z,0
2022-08-01T07:30:26.752Z,0
2022-08-01T07:31:32.620Z,0.11
2022-08-01T07:32:32.752Z,0
2022-08-01T07:33:49.771Z,0
2022-08-01T07:34:49.882Z,0.37
2022-08-01T07:35:49.989Z,0
2022-08-01T07:36:50.107Z,0.37
2022-08-01T07:37:50.215Z,0.16
2022-08-01T07:38:50.329Z,0
2022-08-01T07:39:50.433Z,0.23
2022-08-01T07:40:50.539Z,0.16
2022-08-01T07:42:13.687Z,0.47
2022-08-01T07:43:14.165Z,0.47
2022-08-01T07:44:14.281Z,0.47
2022-08-01T07:45:14.389Z,0.47
2022-08-01T07:46:14.500Z,0.47
2022-08-01T07:47:14.610Z,0.47
2022-08-01T07:48:14.723Z,0.47
2022-08-01T07:49:15.173Z,0.47
2022-08-01T07:50:15.354Z,0.47
2022-08-01T07:51:15.465Z,0.47
2022-08-01T07:52:16.467Z,0
2022-08-01T07:53:16.771Z,0
2022-08-01T07:54:16.888Z,0
2022-08-01T07:55:17.056Z,0
2022-08-01T07:56:17.185Z,0
2022-08-01T07:57:17.311Z,0
2022-08-01T07:58:17.419Z,0.16
2022-08-01T07:59:26.519Z,0
2022-08-01T08:00:26.638Z,0
2022-08-01T08:01:26.886Z,0
2022-08-01T08:02:27.269Z,0.22
2022-08-01T08:03:27.398Z,0
2022-08-01T08:04:27.522Z,0
2022-08-01T08:06:00.644Z,0
2022-08-01T08:07:00.819Z,0
2022-08-01T08:08:00.933Z,0
2022-08-01T08:09:01.038Z,0
2022-08-01T08:10:01.322Z,0
2022-08-01T08:11:01.438Z,0.62
2022-08-01T08:12:02.515Z,0.12
2022-08-01T08:13:02.639Z,0.49
2022-08-01T08:14:02.750Z,0.25
2022-08-01T08:15:02.866Z,0
2022-08-01T08:16:02.974Z,0
2022-08-01T08:17:03.536Z,0
2022-08-01T08:18:03.647Z,0
2022-08-01T08:19:03.753Z,0
2022-08-01T08:20:09.634Z,0
2022-08-01T08:21:09.834Z,0
2022-08-01T08:22:11.168Z,0
2022-08-01T08:23:43.900Z,0
2022-08-01T08:24:47.267Z,0
2022-08-01T08:25:47.408Z,0
2022-08-01T08:26:52.492Z,0
2022-08-01T08:27:52.610Z,0
2022-08-01T08:28:52.725Z,0.12
2022-08-01T08:29:52.846Z,0
2022-08-01T08:30:52.956Z,0
2022-08-01T08:31:53.380Z,0
2022-08-01T08:32:53.492Z,0
2022-08-01T08:33:53.608Z,0
2022-08-01T08:34:53.725Z,0
2022-08-01T08:35:54.576Z,0
2022-08-01T08:36:55.239Z,0
2022-08-01T08:37:58.332Z,0
2022-08-01T08:38:58.441Z,0
2022-08-01T08:39:58.553Z,0
2022-08-01T08:40:58.662Z,0
2022-08-01T08:41:58.772Z,0
2022-08-01T08:42:58.883Z,0.83
2022-08-01T08:43:58.996Z,0.31
2022-08-01T08:45:03.089Z,0.91
2022-08-01T08:46:03.200Z,0.83
2022-08-01T08:47:03.317Z,0.83
2022-08-01T08:48:03.425Z,0
2022-08-01T08:49:06.615Z,0
2022-08-01T08:50:06.804Z,0
2022-08-01T08:51:06.931Z,0
2022-08-01T08:52:09.654Z,0
2022-08-01T08:53:09.831Z,0.2
2022-08-01T08:54:09.939Z,1.33
2022-08-01T08:55:10.038Z,0.56
2022-08-01T08:56:10.140Z,1
2022-08-01T08:57:10.253Z,1
2022-08-01T08:58:10.360Z,0.33
2022-08-01T08:59:10.468Z,0
2022-08-01T09:00:10.563Z,0.14
2022-08-01T09:01:10.671Z,0
2022-08-01T09:02:11.850Z,0
2022-08-01T09:03:12.363Z,0.54
2022-08-01T09:04:12.529Z,0
2022-08-01T09:05:20.185Z,0
2022-08-01T09:06:20.391Z,0
2022-08-01T09:07:20.540Z,0
2022-08-01T09:08:20.667Z,0.25
2022-08-01T09:09:20.800Z,1.2
2022-08-01T09:10:22.221Z,1.06
2022-08-01T09:11:23.481Z,0.53
2022-08-01T09:12:23.594Z,0.58
2022-08-01T09:13:23.699Z,1.87
2022-08-01T09:14:23.807Z,0.34
2022-08-01T09:15:23.911Z,0
2022-08-01T09:16:24.019Z,0
2022-08-01T09:17:24.129Z,0
2022-08-01T09:18:24.239Z,0
2022-08-01T09:19:42.130Z,0
2022-08-01T09:20:44.958Z,0.39
2022-08-01T09:21:45.073Z,0
2022-08-01T09:22:48.141Z,0
2022-08-01T09:23:55.149Z,0
2022-08-01T09:24:55.321Z,0
2022-08-01T09:25:59.553Z,0
2022-08-01T09:27:03.573Z,0
2022-08-01T09:28:05.192Z,0
2022-08-01T09:29:06.297Z,0
2022-08-01T09:30:07.722Z,0
2022-08-01T09:31:08.523Z,0.37
2022-08-01T09:32:16.719Z,0.79
2022-08-01T09:33:22.360Z,0.41
2022-08-01T09:34:22.487Z,0
2022-08-01T09:35:23.803Z,0
2022-08-01T09:36:23.929Z,0
2022-08-01T09:37:24.406Z,0
2022-08-01T09:38:24.588Z,0
2022-08-01T09:39:24.770Z,0
2022-08-01T09:40:24.904Z,0
2022-08-01T09:41:40.487Z,0
2022-08-01T09:42:40.633Z,0
2022-08-01T09:43:40.757Z,0
2022-08-01T09:44:55.396Z,1.12
2022-08-01T09:45:58.836Z,1.41
2022-08-01T09:46:58.965Z,0.95
2022-08-01T09:47:59.084Z,0.23
2022-08-01T09:48:59.348Z,1.08
2022-08-01T09:50:00.461Z,0.92
2022-08-01T09:51:09.973Z,0.44
2022-08-01T09:52:10.122Z,0.44
2022-08-01T09:53:31.131Z,0.42
2022-08-01T09:54:39.623Z,0.15
2022-08-01T09:55:39.732Z,0
2022-08-01T09:56:39.842Z,0
2022-08-01T09:57:39.958Z,0
2022-08-01T09:58:40.073Z,0.15
2022-08-01T10:00:01.568Z,0
2022-08-01T10:01:01.938Z,0
2022-08-01T10:02:02.054Z,1.66
2022-08-01T10:03:11.852Z,0.57
2022-08-01T10:04:12.589Z,0.57
2022-08-01T10:05:23.837Z,0.57
2022-08-01T10:06:25.285Z,0.57
2022-08-01T10:07:44.504Z,0.12
2022-08-01T10:08:45.565Z,0.1
2022-08-01T10:09:46.395Z,0
2022-08-01T10:10:46.508Z,0
2022-08-01T10:11:46.638Z,0
2022-08-01T10:12:49.289Z,1.29
2022-08-01T10:13:49.398Z,0.7
2022-08-01T10:14:50.810Z,0.38
2022-08-01T10:15:50.931Z,0
2022-08-01T10:17:03.121Z,0
2022-08-01T10:18:26.589Z,0
2022-08-01T10:19:29.492Z,0.16
2022-08-01T10:20:32.535Z,0
2022-08-01T10:22:00.124Z,0
2022-08-01T10:23:06.791Z,0
2022-08-01T10:24:07.542Z,0
2022-08-01T10:25:07.674Z,0
2022-08-01T10:26:08.561Z,0
2022-08-01T10:27:12.952Z,0
2022-08-01T10:28:13.126Z,0.6
2022-08-01T10:30:15.411Z,0.66
2022-08-01T10:31:31.191Z,0.48
2022-08-01T10:32:31.320Z,0
2022-08-01T10:33:53.735Z,0.55
2022-08-01T10:34:53.882Z,0.9
2022-08-01T10:35:55.961Z,0.28
2022-08-01T10:36:56.542Z,0.79
2022-08-01T10:37:56.647Z,0.62
2022-08-01T10:38:56.762Z,1.14
2022-08-01T10:40:31.899Z,1.26
2022-08-01T10:41:32.105Z,0
2022-08-01T10:42:35.535Z,0.33
2022-08-01T10:43:36.828Z,0.2
2022-08-01T10:44:38.761Z,0
2022-08-01T10:45:40.056Z,1.08
2022-08-01T10:46:45.954Z,1.54
2022-08-01T10:47:52.654Z,0
2022-08-01T10:48:53.217Z,1.66
2022-08-01T10:49:53.386Z,1.76
2022-08-01T10:50:53.526Z,0.29
2022-08-01T10:51:55.023Z,0.14
2022-08-01T10:52:56.166Z,0
2022-08-01T10:54:01.004Z,0.44
2022-08-01T10:55:04.019Z,0.16
2022-08-01T10:56:04.157Z,0.16
2022-08-01T10:57:08.552Z,0
2022-08-01T10:58:08.883Z,0.28
2022-08-01T10:59:15.268Z,0.55
2022-08-01T11:00:15.378Z,0.91
2022-08-01T11:01:15.896Z,0.62
2022-08-01T11:02:16.064Z,0.87
2022-08-01T11:03:16.341Z,0.28
2022-08-01T11:04:18.472Z,0
2022-08-01T11:05:19.899Z,0
2022-08-01T11:06:20.025Z,0.46
2022-08-01T11:07:26.120Z,0.2
2022-08-01T11:08:34.985Z,0
2022-08-01T11:09:38.151Z,1.45
2022-08-01T11:10:40.101Z,0.54
2022-08-01T11:11:40.528Z,0.52
2022-08-01T11:12:40.631Z,1.21
2022-08-01T11:13:40.841Z,3.41
2022-08-01T11:14:56.317Z,1.75
2022-08-01T11:16:17.356Z,2.17
2022-08-01T11:17:19.581Z,1.14
2022-08-01T11:18:31.302Z,1.2
2022-08-01T11:19:32.333Z,1.44
2022-08-01T11:20:32.918Z,1.03
2022-08-01T11:22:01.871Z,1.66
2022-08-01T11:23:03.875Z,0.87
2022-08-01T11:24:04.003Z,2.41
2022-08-01T11:25:04.123Z,3.01
2022-08-01T11:26:11.039Z,3.02
2022-08-01T11:27:11.194Z,3.4
2022-08-01T11:28:15.608Z,3.75
2022-08-01T11:29:22.993Z,2.15
2022-08-01T11:30:24.090Z,1.98
2022-08-01T11:31:24.242Z,1.79
2022-08-01T11:32:24.357Z,1.79
2022-08-01T11:33:24.468Z,1.14
2022-08-01T11:34:24.958Z,0.54
2022-08-01T11:35:25.101Z,0
2022-08-01T11:37:09.847Z,0
2022-08-01T11:38:10.137Z,0
2022-08-01T11:39:14.517Z,0
2022-08-01T11:40:14.629Z,0.58
2022-08-01T11:41:14.757Z,1.06
2022-08-01T11:42:15.076Z,0.87
2022-08-01T11:43:15.194Z,1.21
2022-08-01T11:44:15.315Z,3.08
2022-08-01T11:45:18.897Z,0.46
2022-08-01T11:46:19.006Z,0.83
2022-08-01T11:47:21.601Z,1.08
2022-08-01T11:48:28.045Z,0.21
2022-08-01T11:49:29.950Z,0.28
2022-08-01T11:50:31.493Z,0
2022-08-01T11:51:36.114Z,0.29
2022-08-01T11:52:36.300Z,1.33
2022-08-01T11:53:36.868Z,1.43
2022-08-01T11:54:41.024Z,0.96
2022-08-01T11:55:41.140Z,0.97
2022-08-01T11:56:48.277Z,0.34
2022-08-01T11:57:48.755Z,2.12
2022-08-01T11:58:49.450Z,0.97
2022-08-01T12:00:08.958Z,0.75
2022-08-01T12:01:09.118Z,2.08
2022-08-01T12:02:09.430Z,1.17
2022-08-01T12:03:09.589Z,1.7
2022-08-01T12:04:09.712Z,0.94
2022-08-01T12:05:12.464Z,0.41
2022-08-01T12:06:12.609Z,0.62
2022-08-01T12:07:13.242Z,3.45
2022-08-01T12:08:13.364Z,1.68
2022-08-01T12:09:13.477Z,2.62
2022-08-01T12:10:13.584Z,0.13
2022-08-01T12:11:14.047Z,1.33
2022-08-01T12:12:14.152Z,1
2022-08-01T12:13:14.266Z,2.2
2022-08-01T12:14:14.375Z,0.1
2022-08-01T12:15:14.501Z,0
2022-08-01T12:16:14.616Z,0
2022-08-01T12:17:14.722Z,0.45
2022-08-01T12:18:14.885Z,0.5
2022-08-01T12:19:14.998Z,2.33
2022-08-01T12:20:15.114Z,2.77
2022-08-01T12:21:15.222Z,1.66
2022-08-01T12:22:15.345Z,1.37
2022-08-01T12:23:15.462Z,0.27
2022-08-01T12:24:15.583Z,0.83
2022-08-01T12:25:15.693Z,1.54
2022-08-01T12:26:32.466Z,2.37
2022-08-01T12:27:32.806Z,1.12
2022-08-01T12:28:34.156Z,0.58
2022-08-01T12:29:34.275Z,1.41
2022-08-01T12:30:34.383Z,0.41
2022-08-01T12:31:34.513Z,1.91
2022-08-01T12:32:36.116Z,1.32
2022-08-01T12:33:36.250Z,0.44
2022-08-01T12:34:36.369Z,0.45
2022-08-01T12:35:36.500Z,0.79
2022-08-01T12:36:36.614Z,0.26
2022-08-01T12:37:36.730Z,1.91
2022-08-01T12:38:36.852Z,1.18
2022-08-01T12:39:40.524Z,1.47
2022-08-01T12:40:46.080Z,2.62
2022-08-01T12:41:46.233Z,1.4
2022-08-01T12:42:46.343Z,1.91
2022-08-01T12:43:46.455Z,0.17
2022-08-01T12:44:46.574Z,0.54
2022-08-01T12:45:58.275Z,0.97
2022-08-01T12:46:58.453Z,0.75
2022-08-01T12:47:58.644Z,0
2022-08-01T12:48:59.175Z,0
2022-08-01T12:49:59.344Z,0.58
2022-08-01T12:50:59.524Z,0.32
2022-08-01T12:51:59.641Z,0
2022-08-01T12:52:59.753Z,0
2022-08-01T12:53:59.866Z,1.33
2022-08-01T12:54:59.995Z,0.77
2022-08-01T12:56:00.318Z,0.91
2022-08-01T12:57:00.431Z,1.16
2022-08-01T12:58:00.551Z,2.41
2022-08-01T12:59:00.668Z,1.79
2022-08-01T13:00:00.794Z,0.21
2022-08-01T13:01:01.126Z,0.41
2022-08-01T13:02:01.437Z,1.95
2022-08-01T13:03:01.547Z,0.18
2022-08-01T13:04:01.663Z,0.53
2022-08-01T13:05:01.784Z,0.23
2022-08-01T13:06:01.901Z,1.16
2022-08-01T13:07:02.009Z,1.38
2022-08-01T13:08:07.475Z,0.5
2022-08-01T13:09:07.583Z,0.13
2022-08-01T13:10:07.795Z,1.04
2022-08-01T13:11:07.898Z,0.89
2022-08-01T13:12:11.085Z,0.85
2022-08-01T13:13:28.927Z,1.75
2022-08-01T13:14:29.044Z,1.56
2022-08-01T13:15:29.147Z,0.71
2022-08-01T13:16:57.719Z,1.12
2022-08-01T13:17:57.859Z,1.91
2022-08-01T13:18:57.974Z,1
2022-08-01T13:19:59.293Z,0.12
2022-08-01T13:20:59.404Z,2.45
2022-08-01T13:21:59.519Z,1.2
2022-08-01T13:22:59.637Z,1.83
2022-08-01T13:24:04.486Z,1.08
2022-08-01T13:25:04.631Z,0
2022-08-01T13:26:04.739Z,0
2022-08-01T13:27:05.725Z,0
2022-08-01T13:28:05.851Z,0
2022-08-01T13:29:06.046Z,0.11
2022-08-01T13:30:08.859Z,0.29
2022-08-01T13:31:09.639Z,0.2
2022-08-01T13:32:09.981Z,0.51
2022-08-01T13:33:10.104Z,0
2022-08-01T13:34:10.218Z,1.29
2022-08-01T13:35:10.319Z,2.83
2022-08-01T13:36:10.435Z,1.13
2022-08-01T13:37:10.548Z,3.41
2022-08-01T13:38:10.657Z,2.29
2022-08-01T13:39:10.769Z,1.5
2022-08-01T13:40:10.879Z,0.27
2022-08-01T13:41:10.996Z,1.41
2022-08-01T13:42:19.686Z,0.6
2022-08-01T13:43:19.815Z,0.62
2022-08-01T13:44:19.947Z,1.27
2022-08-01T13:45:22.729Z,0.76
2022-08-01T13:46:22.853Z,0.9
2022-08-01T13:47:32.868Z,1.79
2022-08-01T13:48:34.522Z,2.29
2022-08-01T13:49:41.208Z,0.14
2022-08-01T13:50:41.337Z,1.54
2022-08-01T13:51:41.452Z,1.15
2022-08-01T13:52:41.565Z,1.87
2022-08-01T13:53:41.681Z,1.54
2022-08-01T13:54:41.798Z,0.87
2022-08-01T13:55:41.911Z,0
2022-08-01T13:56:42.016Z,1.2
2022-08-01T13:57:42.131Z,0.11
2022-08-01T13:58:42.226Z,1.41
2022-08-01T13:59:42.346Z,2.2
2022-08-01T14:00:42.607Z,0.45
2022-08-01T14:01:42.885Z,1.75
2022-08-01T14:02:43.034Z,0.69
2022-08-01T14:03:43.160Z,0.72
2022-08-01T14:04:43.447Z,0.55
2022-08-01T14:05:43.564Z,0.15
2022-08-01T14:06:43.673Z,0.46
2022-08-01T14:07:49.038Z,1.58
2022-08-01T14:08:49.784Z,1.12
2022-08-01T14:10:20.689Z,0.37
2022-08-01T14:11:21.616Z,0.99
2022-08-01T14:12:24.032Z,0.87
2022-08-01T14:13:24.158Z,1.91
2022-08-01T14:14:24.295Z,0.44
2022-08-01T14:15:40.118Z,0.75
2022-08-01T14:16:40.705Z,1.75
2022-08-01T14:17:48.279Z,0.97
2022-08-01T14:18:49.073Z,0.62
2022-08-01T14:19:49.185Z,0
2022-08-01T14:20:54.522Z,0.16
2022-08-01T14:21:56.907Z,0
2022-08-01T14:22:57.013Z,0
2022-08-01T14:23:57.128Z,0
2022-08-01T14:25:03.767Z,0
2022-08-01T14:26:12.740Z,1.37
2022-08-01T14:27:12.861Z,0.61
2022-08-01T14:28:12.967Z,2.66
2022-08-01T14:29:13.079Z,1.25
2022-08-01T14:30:13.187Z,1.24
2022-08-01T14:31:13.293Z,1
2022-08-01T14:32:13.404Z,1.54
2022-08-01T14:33:13.521Z,0.58
2022-08-01T14:34:13.627Z,2.18
2022-08-01T14:35:13.739Z,0.95
2022-08-01T14:36:37.415Z,0.22
2022-08-01T14:37:39.243Z,0
2022-08-01T14:38:39.360Z,0.62
2022-08-01T14:39:54.739Z,0.69
2022-08-01T14:40:54.937Z,0.54
2022-08-01T14:41:55.436Z,1.5
2022-08-01T14:42:55.554Z,1.16
2022-08-01T14:43:55.664Z,0.48